createdAt,value
2023-05-12T00:01:17.052Z,19.13
2023-05-12T00:03:43.739Z,16.67
2023-05-12T00:06:10.457Z,17.17
2023-05-12T00:08:36.954Z,18.00
2023-05-12T00:11:03.862Z,18.23
2023-05-12T00:13:30.340Z,18.40
2023-05-12T00:15:58.860Z,18.20
2023-05-12T00:18:26.327Z,19.30
2023-05-12T00:20:54.423Z,18.73
2023-05-12T00:23:22.120Z,18.57
2023-05-12T00:25:49.003Z,19.10
2023-05-12T00:28:15.531Z,18.40
2023-05-12T00:30:41.995Z,17.60
2023-05-12T00:33:11.455Z,17.80
2023-05-12T00:35:37.862Z,18.63
2023-05-12T00:38:04.247Z,18.10
2023-05-12T00:40:31.081Z,18.60
2023-05-12T00:42:57.589Z,19.60
2023-05-12T00:45:24.342Z,18.70
2023-05-12T00:47:52.261Z,18.73
2023-05-12T00:50:19.155Z,20.30
2023-05-12T00:52:47.047Z,20.33
2023-05-12T00:55:13.683Z,17.47
2023-05-12T00:57:41.454Z,20.27
2023-05-12T01:00:08.820Z,18.37
2023-05-12T01:02:36.483Z,17.97
2023-05-12T01:05:03.873Z,17.50
2023-05-12T01:07:33.099Z,18.97
2023-05-12T01:09:59.827Z,17.70
2023-05-12T01:12:27.121Z,17.60
2023-05-12T01:14:56.063Z,18.63
2023-05-12T01:17:32.876Z,18.70
2023-05-12T01:20:02.306Z,18.00
2023-05-12T01:22:33.683Z,18.90
2023-05-12T01:25:04.182Z,19.10
2023-05-12T01:27:31.994Z,19.87
2023-05-12T01:30:01.737Z,16.53
2023-05-12T01:32:28.228Z,19.40
2023-05-12T01:34:54.611Z,18.33
2023-05-12T01:37:21.136Z,20.10
2023-05-12T01:39:47.636Z,19.90
2023-05-12T01:42:14.061Z,19.60
2023-05-12T01:44:40.730Z,18.73
2023-05-12T01:47:09.901Z,17.97
2023-05-12T01:49:37.207Z,17.33
2023-05-12T01:52:04.221Z,20.47
2023-05-12T01:54:30.753Z,18.20
2023-05-12T01:56:57.209Z,17.90
2023-05-12T01:59:23.622Z,18.30
2023-05-12T02:01:50.163Z,18.43
2023-05-12T02:04:16.610Z,18.03
2023-05-12T02:06:43.086Z,17.87
2023-05-12T02:09:09.585Z,16.53
2023-05-12T02:11:36.638Z,16.90
2023-05-12T02:14:03.318Z,17.20
2023-05-12T02:16:29.728Z,17.40
2023-05-12T02:18:56.198Z,16.97
2023-05-12T02:21:22.697Z,17.50
2023-05-12T02:23:49.204Z,16.60
2023-05-12T02:26:15.761Z,17.70
2023-05-12T02:28:42.188Z,16.33
2023-05-12T02:31:08.935Z,16.97
2023-05-12T02:33:35.409Z,17.40
2023-05-12T02:36:01.824Z,16.20
2023-05-12T02:38:28.267Z,16.00
2023-05-12T02:40:55.108Z,15.53
2023-05-12T02:43:21.654Z,16.60
2023-05-12T02:45:48.133Z,16.30
2023-05-12T02:48:14.546Z,17.13
2023-05-12T02:50:40.955Z,19.13
2023-05-12T02:53:07.378Z,16.10
2023-05-12T02:55:34.064Z,17.10
2023-05-12T02:58:00.526Z,16.00
2023-05-12T03:00:27.028Z,15.70
2023-05-12T03:02:53.543Z,14.60
2023-05-12T03:05:20.198Z,16.00
2023-05-12T03:07:49.417Z,16.50
2023-05-12T03:10:17.632Z,16.60
2023-05-12T03:12:44.124Z,15.30
2023-05-12T03:15:11.191Z,15.03
2023-05-12T03:17:37.683Z,13.97
2023-05-12T03:20:04.581Z,14.83
2023-05-12T03:22:31.058Z,14.43
2023-05-12T03:24:57.475Z,14.77
2023-05-12T03:27:23.967Z,11.40
2023-05-12T03:29:50.420Z,9.70
2023-05-12T03:32:16.828Z,8.90
2023-05-12T03:34:43.223Z,6.60
2023-05-12T03:37:09.649Z,5.70
2023-05-12T03:39:36.002Z,6.93
2023-05-12T03:42:02.915Z,6.30
2023-05-12T03:44:29.297Z,6.70
2023-05-12T03:46:55.766Z,7.77
2023-05-12T03:49:22.206Z,6.90
2023-05-12T03:51:48.559Z,6.73
2023-05-12T03:54:14.986Z,6.80
2023-05-12T03:56:41.385Z,6.90
2023-05-12T03:59:07.850Z,7.50
2023-05-12T04:01:34.373Z,7.70
2023-05-12T04:04:00.842Z,7.03
2023-05-12T04:06:27.381Z,5.30
2023-05-12T04:08:53.777Z,6.20
2023-05-12T04:11:20.137Z,5.10
2023-05-12T04:13:46.568Z,5.30
2023-05-12T04:16:13.115Z,5.43
2023-05-12T04:18:39.670Z,5.60
2023-05-12T04:21:06.187Z,6.30
2023-05-12T04:23:32.703Z,6.30
2023-05-12T04:25:59.160Z,6.30
2023-05-12T04:28:25.731Z,5.70
2023-05-12T04:30:52.153Z,5.60
2023-05-12T04:33:18.553Z,4.77
2023-05-12T04:35:45.080Z,4.23
2023-05-12T04:38:11.503Z,4.83
2023-05-12T04:40:38.057Z,3.10
2023-05-12T04:43:04.852Z,1.70
2023-05-12T04:45:31.274Z,1.63
2023-05-12T04:47:57.695Z,1.60
2023-05-12T04:50:24.123Z,1.70
2023-05-12T04:52:50.489Z,2.50
2023-05-12T04:55:17.002Z,2.57
2023-05-12T04:57:43.427Z,2.77
2023-05-12T05:00:10.467Z,4.60
2023-05-12T05:02:37.209Z,4.40
2023-05-12T05:05:03.858Z,4.03
2023-05-12T05:07:30.273Z,3.60
2023-05-12T05:09:56.717Z,3.50
2023-05-12T05:12:23.154Z,2.40
2023-05-12T05:14:49.574Z,2.80
2023-05-12T05:17:16.024Z,2.20
2023-05-12T05:19:55.149Z,2.07
2023-05-12T05:22:25.218Z,1.93
2023-05-12T05:24:52.051Z,2.10
2023-05-12T05:27:19.108Z,1.93
2023-05-12T05:29:45.743Z,2.00
2023-05-12T05:32:12.281Z,1.87
2023-05-12T05:34:38.731Z,2.03
2023-05-12T05:37:05.692Z,1.60
2023-05-12T05:39:32.260Z,2.30
2023-05-12T05:41:58.714Z,2.07
2023-05-12T05:44:25.471Z,2.10
2023-05-12T05:46:52.116Z,1.80
2023-05-12T05:49:19.085Z,2.10
2023-05-12T05:51:45.568Z,1.90
2023-05-12T05:54:12.229Z,1.87
2023-05-12T05:56:38.715Z,2.60
2023-05-12T05:59:05.438Z,2.27
2023-05-12T06:01:32.538Z,1.83
2023-05-12T06:03:59.244Z,1.60
2023-05-12T06:06:25.867Z,1.60
2023-05-12T06:08:52.316Z,1.60
2023-05-12T06:11:18.757Z,1.83
2023-05-12T06:13:45.132Z,1.67
2023-05-12T06:16:11.557Z,1.37
2023-05-12T06:18:38.628Z,1.10
2023-05-12T06:21:06.234Z,0.90
2023-05-12T06:23:32.698Z,0.90
2023-05-12T06:25:59.245Z,0.80
2023-05-12T06:28:25.854Z,0.87
2023-05-12T06:30:52.254Z,0.90
2023-05-12T06:33:18.719Z,1.00
2023-05-12T06:35:45.160Z,0.83
2023-05-12T06:38:11.929Z,0.70
2023-05-12T06:40:38.330Z,0.90
2023-05-12T06:43:04.801Z,0.60
2023-05-12T06:45:31.223Z,0.80
2023-05-12T06:47:57.841Z,0.60
2023-05-12T06:50:24.367Z,0.70
2023-05-12T06:52:51.172Z,0.70
2023-05-12T06:55:20.494Z,0.67
2023-05-12T06:57:47.667Z,0.70
2023-05-12T07:00:14.641Z,0.80
2023-05-12T07:02:41.305Z,0.83
2023-05-12T07:05:08.545Z,0.87
2023-05-12T07:07:35.984Z,0.70
2023-05-12T07:10:02.414Z,0.77
2023-05-12T07:12:28.840Z,0.73
2023-05-12T07:14:55.251Z,0.70
2023-05-12T07:17:21.902Z,0.73
2023-05-12T07:19:48.428Z,0.90
2023-05-12T07:22:14.991Z,0.90
2023-05-12T07:24:41.645Z,0.70
2023-05-12T07:27:08.221Z,1.00
2023-05-12T07:29:34.935Z,1.20
2023-05-12T07:32:01.366Z,1.40
2023-05-12T07:34:27.936Z,1.23
2023-05-12T07:36:54.514Z,1.60
2023-05-12T07:39:23.765Z,2.00
2023-05-12T07:41:51.222Z,2.57
2023-05-12T07:44:17.694Z,2.53
2023-05-12T07:46:44.414Z,2.33
2023-05-12T07:49:10.849Z,2.80
2023-05-12T07:51:37.396Z,2.67
2023-05-12T07:54:04.845Z,2.47
2023-05-12T07:56:31.337Z,3.40
2023-05-12T07:58:57.810Z,2.57
2023-05-12T08:01:24.381Z,3.07
2023-05-12T08:03:51.476Z,3.20
2023-05-12T08:06:18.739Z,3.27
2023-05-12T08:08:45.240Z,3.50
2023-05-12T08:11:12.632Z,3.43
2023-05-12T08:13:39.445Z,3.17
2023-05-12T08:16:06.332Z,3.30
2023-05-12T08:18:32.821Z,2.73
2023-05-12T08:20:59.285Z,3.40
2023-05-12T08:23:25.788Z,3.50
2023-05-12T08:25:52.227Z,2.93
2023-05-12T08:28:18.641Z,2.80
2023-05-12T08:30:45.590Z,2.80
2023-05-12T08:33:12.791Z,3.27
2023-05-12T08:35:41.644Z,2.90
2023-05-12T08:38:08.309Z,2.80
2023-05-12T08:40:44.510Z,2.60
2023-05-12T08:43:29.916Z,2.90
2023-05-12T08:46:00.087Z,2.30
2023-05-12T08:48:29.236Z,2.80
2023-05-12T08:50:57.825Z,2.77
2023-05-12T08:53:25.759Z,3.03
2023-05-12T08:57:09.065Z,2.97
2023-05-12T08:58:42.720Z,2.73
2023-05-12T09:01:11.308Z,2.60
2023-05-12T09:03:37.997Z,2.70
2023-05-12T09:06:06.335Z,2.97
2023-05-12T09:08:34.790Z,2.47
2023-05-12T09:11:01.787Z,2.43
2023-05-12T09:13:53.322Z,2.43
2023-05-12T09:16:24.357Z,2.73
2023-05-12T09:18:53.258Z,2.80
2023-05-12T09:21:19.982Z,2.60
2023-05-12T09:23:56.413Z,2.70
2023-05-12T09:26:23.958Z,2.47
2023-05-12T09:28:53.065Z,2.73
2023-05-12T09:31:22.448Z,2.57
2023-05-12T09:33:50.696Z,2.83
2023-05-12T09:36:19.230Z,3.60
2023-05-12T09:38:45.886Z,2.27
2023-05-12T09:41:12.647Z,2.80
2023-05-12T09:43:45.938Z,3.03
2023-05-12T09:46:12.408Z,3.77
2023-05-12T09:48:39.123Z,2.70
2023-05-12T09:51:09.723Z,3.03
2023-05-12T09:53:42.862Z,3.30
2023-05-12T09:56:09.284Z,3.30
2023-05-12T09:58:36.872Z,3.00
2023-05-12T10:01:18.352Z,3.17
2023-05-12T10:03:52.137Z,2.80
2023-05-12T10:06:26.639Z,3.00
2023-05-12T10:09:11.524Z,3.03
2023-05-12T10:11:38.311Z,2.63
2023-05-12T10:14:08.140Z,3.73
2023-05-12T10:16:35.453Z,3.50
2023-05-12T10:19:06.136Z,3.10
2023-05-12T10:21:33.152Z,3.20
2023-05-12T10:24:00.595Z,3.43
2023-05-12T10:26:27.352Z,3.13
2023-05-12T10:28:53.983Z,3.17
2023-05-12T10:31:21.210Z,2.97
2023-05-12T10:33:59.445Z,3.20
2023-05-12T10:36:26.576Z,3.10
2023-05-12T10:38:53.553Z,3.10
2023-05-12T10:41:33.382Z,2.80
2023-05-12T10:44:00.174Z,3.13
2023-05-12T10:46:27.609Z,2.70
2023-05-12T10:48:55.479Z,3.27
2023-05-12T10:51:33.586Z,3.00
2023-05-12T10:54:07.184Z,3.60
2023-05-12T10:56:40.030Z,4.60
2023-05-12T10:59:24.471Z,3.73
2023-05-12T11:02:00.255Z,3.80
2023-05-12T11:04:42.250Z,3.30
2023-05-12T11:07:12.173Z,2.90
2023-05-12T11:09:52.139Z,3.30
2023-05-12T11:12:24.409Z,2.57
2023-05-12T11:14:50.849Z,3.23
2023-05-12T11:17:17.329Z,2.63
2023-05-12T11:19:49.506Z,3.00
2023-05-12T11:22:21.602Z,2.70
2023-05-12T11:24:49.437Z,3.17
2023-05-12T11:27:18.742Z,2.23
2023-05-12T11:29:55.216Z,3.20
2023-05-12T11:32:21.668Z,3.13
2023-05-12T11:34:48.601Z,3.07
2023-05-12T11:37:15.121Z,2.70
2023-05-12T11:39:41.805Z,3.07
2023-05-12T11:42:13.250Z,2.83
2023-05-12T11:44:49.952Z,2.70
2023-05-12T11:47:17.709Z,2.83
2023-05-12T11:49:49.026Z,4.30
2023-05-12T11:52:16.038Z,3.40
2023-05-12T11:55:00.734Z,5.13
2023-05-12T11:57:32.494Z,3.90
2023-05-12T12:00:09.682Z,2.73
2023-05-12T12:02:37.522Z,2.90
2023-05-12T12:05:05.849Z,2.80
2023-05-12T12:07:35.857Z,2.87
2023-05-12T12:10:16.409Z,2.93
2023-05-12T12:12:43.052Z,3.07
2023-05-12T12:15:10.723Z,3.00
2023-05-12T12:17:37.871Z,3.30
2023-05-12T12:20:04.637Z,3.50
2023-05-12T12:22:34.703Z,3.30
2023-05-12T12:25:02.007Z,2.90
2023-05-12T12:27:28.362Z,3.30
2023-05-12T12:29:54.768Z,2.80
2023-05-12T12:32:21.180Z,3.23
2023-05-12T12:34:48.953Z,3.20
2023-05-12T12:37:16.070Z,3.17
2023-05-12T12:39:42.682Z,3.20
2023-05-12T12:42:09.300Z,3.23
2023-05-12T12:44:35.686Z,2.87
2023-05-12T12:47:02.158Z,3.40
2023-05-12T12:49:29.314Z,3.20
2023-05-12T12:51:55.957Z,2.97
2023-05-12T12:54:22.713Z,3.13
2023-05-12T12:56:49.154Z,3.70
2023-05-12T12:59:15.611Z,3.43
2023-05-12T13:01:42.859Z,3.00
2023-05-12T13:04:09.479Z,3.37
2023-05-12T13:06:36.088Z,3.53
2023-05-12T13:09:03.883Z,3.20
2023-05-12T13:11:30.402Z,3.40
2023-05-12T13:13:56.763Z,3.70
2023-05-12T13:16:23.235Z,3.80
2023-05-12T13:18:49.845Z,3.50
2023-05-12T13:21:16.342Z,3.67
2023-05-12T13:23:42.784Z,3.33
2023-05-12T13:26:09.238Z,3.80
2023-05-12T13:28:35.779Z,3.93
2023-05-12T13:31:02.190Z,3.87
2023-05-12T13:33:29.121Z,4.03
2023-05-12T13:35:55.598Z,4.00
2023-05-12T13:38:22.367Z,3.90
2023-05-12T13:40:48.967Z,3.87
2023-05-12T13:43:15.377Z,3.83
2023-05-12T13:45:42.653Z,3.40
2023-05-12T13:48:09.122Z,3.20
2023-05-12T13:50:35.867Z,3.33
2023-05-12T13:53:02.331Z,3.57
2023-05-12T13:55:28.841Z,3.77
2023-05-12T13:57:55.293Z,4.30
2023-05-12T14:00:22.038Z,4.13
2023-05-12T14:02:48.828Z,3.83
2023-05-12T14:05:15.910Z,3.97
2023-05-12T14:07:42.598Z,3.57
2023-05-12T14:10:09.884Z,3.97
2023-05-12T14:12:37.107Z,3.90
2023-05-12T14:15:19.738Z,3.67
2023-05-12T14:17:50.387Z,4.10
2023-05-12T14:20:16.920Z,3.93
2023-05-12T14:22:43.427Z,3.83
2023-05-12T14:25:09.826Z,3.17
2023-05-12T14:27:36.325Z,3.37
2023-05-12T14:30:02.886Z,3.70
2023-05-12T14:32:29.608Z,4.20
2023-05-12T14:34:56.023Z,4.20
2023-05-12T14:37:22.454Z,3.97
2023-05-12T14:39:48.989Z,3.80
2023-05-12T14:42:15.621Z,3.63
2023-05-12T14:44:42.039Z,4.30
2023-05-12T14:47:09.246Z,3.60
2023-05-12T14:49:35.824Z,3.90
2023-05-12T14:52:02.746Z,3.90
2023-05-12T14:54:29.407Z,3.63
2023-05-12T14:56:56.515Z,3.60
2023-05-12T14:59:23.010Z,8.73
2023-05-12T15:01:49.572Z,4.63
2023-05-12T15:04:16.204Z,6.50
2023-05-12T15:06:42.617Z,4.50
2023-05-12T15:09:09.069Z,4.00
2023-05-12T15:11:36.823Z,3.40
2023-05-12T15:14:04.708Z,3.33
2023-05-12T15:16:32.843Z,3.37
2023-05-12T15:18:59.400Z,3.47
2023-05-12T15:21:26.030Z,3.17
2023-05-12T15:23:52.472Z,3.23
2023-05-12T15:26:32.044Z,3.17
2023-05-12T15:29:00.509Z,3.77
2023-05-12T15:31:29.431Z,3.23
2023-05-12T15:33:56.974Z,3.40
2023-05-12T15:36:23.510Z,3.13
2023-05-12T15:38:49.921Z,3.27
2023-05-12T15:41:16.351Z,3.07
2023-05-12T15:43:42.806Z,3.70
2023-05-12T15:46:10.864Z,3.60
2023-05-12T15:48:37.621Z,2.97
2023-05-12T15:51:04.347Z,3.63
2023-05-12T15:53:31.190Z,3.90
2023-05-12T15:56:02.014Z,3.50
2023-05-12T15:58:28.879Z,3.00
2023-05-12T16:00:56.052Z,3.40
2023-05-12T16:03:23.615Z,3.40
2023-05-12T16:05:50.510Z,3.43
2023-05-12T16:08:16.999Z,3.13
2023-05-12T16:10:43.397Z,3.60
2023-05-12T16:13:09.823Z,2.97
2023-05-12T16:15:36.355Z,3.37
2023-05-12T16:18:02.867Z,3.33
2023-05-12T16:20:29.814Z,3.20
2023-05-12T16:22:56.321Z,3.90
2023-05-12T16:25:23.082Z,3.37
2023-05-12T16:27:49.862Z,3.47
2023-05-12T16:30:19.139Z,3.60
2023-05-12T16:32:47.239Z,3.60
2023-05-12T16:35:13.888Z,3.60
2023-05-12T16:37:40.429Z,3.70
2023-05-12T16:40:07.650Z,4.20
2023-05-12T16:42:34.143Z,4.13
2023-05-12T16:45:00.683Z,3.50
2023-05-12T16:47:27.364Z,4.30
2023-05-12T16:49:53.900Z,3.53
2023-05-12T16:52:20.606Z,3.20
2023-05-12T16:54:47.712Z,3.70
2023-05-12T16:57:14.173Z,3.63
2023-05-12T16:59:40.604Z,4.00
2023-05-12T17:02:08.310Z,3.63
2023-05-12T17:04:34.907Z,3.57
2023-05-12T17:07:01.260Z,3.50
2023-05-12T17:09:27.749Z,3.57
2023-05-12T17:11:54.408Z,3.20
2023-05-12T17:14:20.996Z,3.07
2023-05-12T17:16:47.434Z,3.57
2023-05-12T17:19:14.614Z,3.77
2023-05-12T17:21:41.875Z,3.03
2023-05-12T17:24:08.711Z,3.97
2023-05-12T17:26:35.417Z,3.70
2023-05-12T17:29:02.419Z,3.87
2023-05-12T17:31:29.015Z,4.70
2023-05-12T17:33:55.574Z,3.70
2023-05-12T17:36:22.156Z,4.40
2023-05-12T17:38:49.953Z,4.00
2023-05-12T17:41:16.451Z,5.33
2023-05-12T17:43:42.969Z,3.93
2023-05-12T17:46:09.602Z,4.83
2023-05-12T17:48:36.273Z,4.40
2023-05-12T17:51:03.361Z,4.60
2023-05-12T17:53:31.156Z,4.60
2023-05-12T17:55:58.099Z,4.83
2023-05-12T17:58:24.743Z,4.63
2023-05-12T18:00:51.326Z,4.27
2023-05-12T18:03:23.091Z,4.53
2023-05-12T18:05:50.903Z,4.77
2023-05-12T18:08:17.573Z,4.83
2023-05-12T18:10:44.133Z,4.87
2023-05-12T18:13:10.905Z,5.70
2023-05-12T18:15:37.454Z,5.17
2023-05-12T18:18:04.258Z,5.50
2023-05-12T18:20:30.825Z,5.50
2023-05-12T18:22:57.342Z,5.03
2023-05-12T18:25:23.860Z,5.50
2023-05-12T18:27:50.327Z,5.00
2023-05-12T18:30:16.781Z,7.10
2023-05-12T18:32:43.314Z,8.70
2023-05-12T18:35:09.897Z,6.73
2023-05-12T18:37:36.315Z,5.80
2023-05-12T18:40:02.808Z,5.80
2023-05-12T18:42:29.235Z,6.70
2023-05-12T18:44:56.263Z,5.00
2023-05-12T18:47:22.706Z,4.87
2023-05-12T18:49:49.293Z,4.83
2023-05-12T18:52:15.725Z,4.90
2023-05-12T18:54:42.151Z,5.40
2023-05-12T18:57:08.770Z,7.20
2023-05-12T18:59:35.169Z,5.73
2023-05-12T19:02:01.866Z,5.30
2023-05-12T19:04:28.397Z,4.90
2023-05-12T19:06:54.831Z,4.67
2023-05-12T19:09:21.226Z,4.67
2023-05-12T19:11:48.012Z,4.30
2023-05-12T19:14:16.603Z,4.73
2023-05-12T19:16:43.348Z,5.00
2023-05-12T19:19:10.061Z,5.10
2023-05-12T19:21:36.793Z,5.50
2023-05-12T19:24:03.429Z,5.70
2023-05-12T19:26:29.849Z,5.27
2023-05-12T19:28:56.240Z,6.27
2023-05-12T19:31:22.821Z,5.80
2023-05-12T19:33:49.350Z,5.90
2023-05-12T19:36:15.742Z,4.93
2023-05-12T19:38:44.074Z,5.30
2023-05-12T19:41:10.823Z,4.10
2023-05-12T19:43:37.266Z,4.57
2023-05-12T19:46:03.785Z,4.97
2023-05-12T19:48:30.660Z,4.83
2023-05-12T19:50:57.199Z,4.20
2023-05-12T19:53:23.583Z,4.80
2023-05-12T19:55:49.976Z,4.73
2023-05-12T19:58:16.349Z,5.37
2023-05-12T20:00:42.794Z,4.40
2023-05-12T20:03:09.462Z,5.00
2023-05-12T20:05:38.865Z,4.90
2023-05-12T20:08:05.892Z,4.57
2023-05-12T20:10:32.455Z,5.50
2023-05-12T20:12:58.926Z,5.20
2023-05-12T20:15:25.376Z,4.93
2023-05-12T20:17:51.814Z,5.30
2023-05-12T20:20:18.258Z,5.23
2023-05-12T20:22:44.705Z,5.53
2023-05-12T20:25:14.260Z,4.70
2023-05-12T20:27:40.662Z,5.03
2023-05-12T20:30:07.830Z,5.37
2023-05-12T20:32:34.489Z,4.40
2023-05-12T20:35:01.232Z,5.07
2023-05-12T20:37:28.014Z,5.13
2023-05-12T20:39:55.563Z,4.37
2023-05-12T20:42:21.998Z,4.70
2023-05-12T20:44:48.573Z,5.10
2023-05-12T20:47:15.029Z,5.50
2023-05-12T20:49:42.128Z,5.70
2023-05-12T20:52:08.549Z,5.37
2023-05-12T20:54:35.080Z,5.70
2023-05-12T20:57:01.473Z,5.13
2023-05-12T20:59:27.880Z,5.90
2023-05-12T21:01:54.340Z,5.30
2023-05-12T21:04:20.878Z,5.37
2023-05-12T21:06:47.248Z,5.20
2023-05-12T21:09:13.868Z,5.50
2023-05-12T21:11:41.498Z,5.20
2023-05-12T21:14:07.872Z,5.43
2023-05-12T21:16:34.343Z,4.47
2023-05-12T21:19:00.797Z,4.87
2023-05-12T21:21:28.622Z,4.70
2023-05-12T21:23:55.053Z,4.83
2023-05-12T21:26:21.502Z,4.90
2023-05-12T21:28:47.958Z,5.20
2023-05-12T21:31:14.374Z,6.20
2023-05-12T21:33:40.813Z,7.30
2023-05-12T21:36:07.502Z,7.30
2023-05-12T21:38:33.896Z,5.33
2023-05-12T21:41:00.439Z,5.80
2023-05-12T21:43:26.934Z,5.27
2023-05-12T21:45:53.397Z,5.60
2023-05-12T21:48:19.796Z,5.50
2023-05-12T21:50:57.286Z,5.77
2023-05-12T21:53:23.725Z,5.47
2023-05-12T21:55:50.172Z,5.27
2023-05-12T21:58:16.596Z,5.20
2023-05-12T22:00:43.145Z,5.17
2023-05-12T22:03:09.856Z,5.60
2023-05-12T22:05:36.430Z,5.60
2023-05-12T22:08:02.881Z,5.30
2023-05-12T22:10:31.744Z,5.50
2023-05-12T22:12:58.162Z,5.20
2023-05-12T22:15:24.582Z,5.13
2023-05-12T22:17:51.132Z,5.13
2023-05-12T22:20:18.425Z,5.50
2023-05-12T22:22:45.063Z,5.10
2023-05-12T22:25:11.587Z,4.83
2023-05-12T22:27:38.050Z,5.20
2023-05-12T22:30:04.994Z,5.77
2023-05-12T22:32:32.674Z,6.60
2023-05-12T22:34:59.233Z,6.23
2023-05-12T22:37:26.001Z,5.67
2023-05-12T22:39:52.468Z,5.23
2023-05-12T22:42:18.889Z,5.97
2023-05-12T22:44:45.480Z,5.30
2023-05-12T22:47:12.515Z,5.97
2023-05-12T22:49:39.066Z,6.40
2023-05-12T22:52:05.976Z,5.90
2023-05-12T22:54:32.471Z,6.33
2023-05-12T22:56:58.860Z,5.63
2023-05-12T22:59:25.420Z,6.20
2023-05-12T23:01:51.893Z,7.70
2023-05-12T23:04:18.336Z,6.90
2023-05-12T23:06:44.755Z,6.37
2023-05-12T23:09:11.121Z,5.83
2023-05-12T23:11:38.100Z,6.03
2023-05-12T23:14:04.489Z,6.57
2023-05-12T23:16:31.046Z,6.80
2023-05-12T23:18:57.563Z,7.17
2023-05-12T23:21:24.011Z,6.63
2023-05-12T23:23:50.547Z,7.47
2023-05-12T23:26:16.947Z,7.10
2023-05-12T23:28:43.324Z,7.60
2023-05-12T23:31:10.137Z,7.80
2023-05-12T23:33:36.743Z,6.70
2023-05-12T23:36:03.509Z,7.17
2023-05-12T23:38:29.899Z,6.60
2023-05-12T23:40:56.332Z,7.70
2023-05-12T23:43:22.767Z,6.67
2023-05-12T23:45:49.335Z,7.17
2023-05-12T23:48:15.874Z,7.70
2023-05-12T23:50:42.342Z,7.40
2023-05-12T23:53:08.754Z,6.60
2023-05-12T23:55:37.136Z,7.30
2023-05-12T23:58:03.587Z,6.83
